Time;durP1;ratioP1;P1;durP2;ratioP2;P2;SDS_P1;SDS_P2;PMS_P1;PMS_P2;Temp;Humidity;BMP_temperature;BMP_pressure;BME280_temperature;BME280_humidity;BME280_pressure;Samples;Min_cycle;Max_cycle;Signal;HPM_P1;HPM_P2
2022/09/20 00:00:45;;;;;;;11.20;3.28;;;9.30;91.50;;;;;;5115318;28;20015;-40
2022/09/20 00:03:12;;;;;;;14.20;3.60;;;9.30;91.50;;;;;;5115577;28;20027;-38
2022/09/20 00:05:39;;;;;;;12.80;2.83;;;9.30;91.40;;;;;;5115568;28;20027;-38
2022/09/20 00:08:07;;;;;;;14.07;2.58;;;9.30;91.20;;;;;;5115309;28;20032;-38
2022/09/20 00:10:38;;;;;;;10.20;2.38;;;9.30;91.20;;;;;;5115285;28;20070;-38
2022/09/20 00:13:05;;;;;;;5.43;1.88;;;9.30;91.10;;;;;;5115501;28;20027;-38
2022/09/20 00:15:32;;;;;;;9.20;2.47;;;9.40;90.90;;;;;;5115165;28;20019;-38
2022/09/20 00:17:58;;;;;;;9.35;2.13;;;9.50;90.50;;;;;;5114146;28;20142;-38
2022/09/20 00:20:24;;;;;;;12.95;2.35;;;9.60;90.10;;;;;;5115388;28;20043;-38
2022/09/20 00:22:50;;;;;;;7.65;1.70;;;9.70;89.90;;;;;;5115027;28;20076;-38
2022/09/20 00:25:17;;;;;;;4.05;1.70;;;9.70;89.60;;;;;;5115024;28;20038;-38
2022/09/20 00:27:44;;;;;;;11.57;1.95;;;9.80;89.50;;;;;;5114874;28;20502;-38
2022/09/20 00:30:12;;;;;;;4.68;2.08;;;9.70;89.50;;;;;;5114731;28;20459;-38
2022/09/20 00:32:38;;;;;;;18.33;3.65;;;9.80;89.50;;;;;;5114394;28;20023;-39
2022/09/20 00:35:09;;;;;;;9.45;2.63;;;9.80;89.40;;;;;;5114580;28;20106;-38
2022/09/20 00:37:37;;;;;;;8.30;1.88;;;9.80;89.40;;;;;;5115084;28;20024;-39
2022/09/20 00:40:05;;;;;;;5.57;1.95;;;9.70;89.30;;;;;;5114757;28;20072;-39
2022/09/20 00:42:31;;;;;;;6.55;1.80;;;9.80;89.30;;;;;;5113073;28;20058;-38
2022/09/20 00:45:04;;;;;;;4.63;1.92;;;9.80;89.20;;;;;;5114433;28;20031;-39
2022/09/20 00:47:54;;;;;;;9.82;2.40;;;9.70;89.20;;;;;;5114399;28;20063;-39
2022/09/20 00:50:41;;;;;;;13.73;2.30;;;9.70;89.30;;;;;;5114744;28;20095;-38
2022/09/20 00:53:19;;;;;;;11.18;2.72;;;9.70;89.50;;;;;;5114155;28;20495;-38
2022/09/20 00:56:00;;;;;;;11.55;2.35;;;9.60;89.50;;;;;;5114541;28;20353;-38
2022/09/20 00:58:29;;;;;;;5.90;1.75;;;9.50;89.70;;;;;;5114303;28;20435;-39
2022/09/20 01:00:56;;;;;;;14.50;3.67;;;9.40;89.90;;;;;;5114121;28;20016;-39
2022/09/20 01:03:26;;;;;;;7.03;3.05;;;9.40;90.00;;;;;;5113375;28;20111;-39
2022/09/20 01:05:53;;;;;;;12.18;2.35;;;9.30;90.00;;;;;;5112853;28;20020;-39
2022/09/20 01:08:20;;;;;;;12.43;2.42;;;9.20;90.20;;;;;;5114145;28;20098;-39
2022/09/20 01:10:46;;;;;;;5.60;1.90;;;9.10;90.60;;;;;;5113884;28;20023;-39
2022/09/20 01:13:11;;;;;;;16.60;4.68;;;9.10;90.60;;;;;;5113788;28;20491;-39
2022/09/20 01:15:38;;;;;;;7.35;1.98;;;9.10;90.80;;;;;;5113854;28;20047;-39
2022/09/20 01:18:07;;;;;;;7.75;2.30;;;9.10;91.10;;;;;;5113746;28;20434;-38
2022/09/20 01:20:36;;;;;;;8.18;2.72;;;9.20;90.90;;;;;;5113981;28;20028;-38
2022/09/20 01:23:08;;;;;;;16.53;2.87;;;9.20;91.00;;;;;;5113924;28;20484;-37
2022/09/20 01:26:07;;;;;;;6.30;2.90;;;9.10;91.10;;;;;;5113919;28;20046;-38
2022/09/20 01:28:34;;;;;;;13.18;2.40;;;9.20;91.30;;;;;;5112378;28;20498;-38
2022/09/20 01:31:13;;;;;;;7.95;2.40;;;9.10;91.20;;;;;;5113585;28;20020;-39
2022/09/20 01:33:51;;;;;;;9.83;1.90;;;9.10;91.30;;;;;;5113953;28;20077;-39
2022/09/20 01:36:24;;;;;;;5.97;2.70;;;9.00;91.30;;;;;;5113715;28;20475;-39
2022/09/20 01:38:59;;;;;;;12.90;2.90;;;8.90;91.40;;;;;;5114015;28;20592;-40
2022/09/20 01:41:41;;;;;;;13.10;2.80;;;8.80;91.50;;;;;;5114087;28;20371;-37
2022/09/20 01:44:31;;;;;;;7.53;2.53;;;8.80;91.70;;;;;;5113517;28;20106;-39
2022/09/20 01:47:15;;;;;;;7.15;2.13;;;8.80;91.90;;;;;;5113781;28;20026;-39
2022/09/20 01:49:46;;;;;;;10.93;2.25;;;8.80;92.00;;;;;;5112170;28;20034;-37
2022/09/20 01:52:57;;;;;;;9.82;2.40;;;8.80;92.20;;;;;;5111940;28;20514;-38
2022/09/20 01:55:53;;;;;;;9.95;2.30;;;8.60;92.20;;;;;;5113608;28;20023;-39
2022/09/20 01:58:25;;;;;;;7.18;2.13;;;8.50;92.20;;;;;;5113342;28;20547;-38
2022/09/20 02:00:59;;;;;;;10.18;2.30;;;8.40;92.40;;;;;;5112887;28;20070;-40
2022/09/20 02:04:00;;;;;;;4.15;2.45;;;8.40;92.50;;;;;;5111506;28;20038;-37
2022/09/20 02:06:28;;;;;;;8.27;2.85;;;8.40;92.60;;;;;;5113214;28;20115;-37
2022/09/20 02:09:31;;;;;;;6.07;2.22;;;8.30;92.70;;;;;;5112888;28;20127;-37
2022/09/20 02:12:06;;;;;;;12.13;2.75;;;8.40;92.80;;;;;;5113302;28;20046;-38
2022/09/20 02:14:46;;;;;;;7.47;3.08;;;8.30;92.80;;;;;;5114593;28;20425;-37
2022/09/20 02:17:31;;;;;;;5.63;2.60;;;8.30;92.90;;;;;;5115651;28;20486;-38
2022/09/20 02:20:22;;;;;;;9.60;2.65;;;8.30;92.90;;;;;;5117239;28;20467;-37
2022/09/20 02:23:15;;;;;;;8.77;2.92;;;8.30;93.00;;;;;;5117060;28;20019;-38
2022/09/20 02:25:51;;;;;;;8.57;2.88;;;8.30;93.00;;;;;;5117015;28;20016;-38
2022/09/20 02:28:38;;;;;;;7.95;2.47;;;8.30;93.00;;;;;;5117226;28;20125;-38
2022/09/20 02:31:21;;;;;;;7.25;2.75;;;8.30;93.10;;;;;;5117071;28;20032;-39
2022/09/20 02:34:07;;;;;;;6.90;2.88;;;8.30;93.20;;;;;;5116673;28;20053;-39
2022/09/20 02:37:06;;;;;;;4.18;2.22;;;8.20;93.10;;;;;;5116838;28;20015;-37
2022/09/20 02:39:57;;;;;;;6.22;2.92;;;8.20;93.10;;;;;;5093619;27;20038;-37
2022/09/20 02:42:30;;;;;;;9.35;2.97;;;8.20;93.20;;;;;;5097723;28;20040;-37
2022/09/20 02:45:20;;;;;;;8.85;2.70;;;8.20;93.20;;;;;;5116904;28;20024;-38
2022/09/20 02:47:46;;;;;;;6.55;3.10;;;8.10;93.20;;;;;;5116525;28;20027;-37
2022/09/20 02:50:18;;;;;;;7.53;3.15;;;8.10;93.30;;;;;;5116457;28;20028;-38
2022/09/20 02:52:59;;;;;;;7.85;3.08;;;8.10;93.30;;;;;;5116282;28;20047;-39
2022/09/20 02:55:37;;;;;;;4.75;2.72;;;8.00;93.30;;;;;;5116845;28;20042;-38
2022/09/20 02:58:25;;;;;;;9.77;3.55;;;8.10;93.40;;;;;;5116782;28;20031;-37
2022/09/20 03:01:03;;;;;;;12.90;3.88;;;8.10;93.50;;;;;;5116544;28;20023;-38
2022/09/20 03:03:37;;;;;;;7.57;3.22;;;8.10;93.50;;;;;;5116288;28;20028;-38
2022/09/20 03:06:20;;;;;;;12.32;4.13;;;8.10;93.60;;;;;;5116360;28;20353;-40
2022/09/20 03:09:07;;;;;;;10.65;3.58;;;8.10;93.60;;;;;;5116248;28;20020;-38
2022/09/20 03:12:01;;;;;;;8.80;3.38;;;8.00;93.70;;;;;;5115360;28;20110;-40
2022/09/20 03:14:41;;;;;;;10.30;3.65;;;8.00;93.70;;;;;;5116073;28;20028;-38
2022/09/20 03:17:12;;;;;;;10.03;3.60;;;8.00;93.80;;;;;;5116282;27;20020;-38
2022/09/20 03:20:14;;;;;;;10.45;4.57;;;8.00;93.80;;;;;;5116117;28;20349;-39
2022/09/20 03:23:13;;;;;;;11.52;4.70;;;7.90;93.80;;;;;;5100317;28;20076;-39
2022/09/20 03:26:02;;;;;;;9.13;4.13;;;8.00;93.90;;;;;;5115441;28;20152;-38
2022/09/20 03:28:42;;;;;;;9.02;3.67;;;8.00;93.90;;;;;;5116360;28;20094;-40
2022/09/20 03:31:11;;;;;;;;;;;7.90;93.90;;;;;;5116517;28;20023;-38
2022/09/20 03:34:00;;;;;;;9.20;3.83;;;7.90;94.00;;;;;;5116122;28;20297;-38
2022/09/20 03:36:29;;;;;;;10.35;5.40;;;7.90;94.10;;;;;;5116708;28;20081;-38
2022/09/20 03:39:24;;;;;;;9.20;3.92;;;7.90;94.00;;;;;;5115931;28;20034;-40
2022/09/20 03:42:03;;;;;;;11.02;4.25;;;7.90;94.00;;;;;;5116390;28;20016;-40
2022/09/20 03:44:50;;;;;;;7.60;4.20;;;7.80;94.00;;;;;;5114437;28;20039;-39
2022/09/20 03:47:37;;;;;;;13.00;5.32;;;7.80;94.10;;;;;;5116203;28;20147;-37
2022/09/20 03:50:30;;;;;;;10.30;4.57;;;7.80;94.10;;;;;;5115720;28;20086;-40
2022/09/20 03:53:24;;;;;;;14.43;4.80;;;7.80;94.10;;;;;;5114071;28;20047;-38
2022/09/20 03:56:09;;;;;;;11.45;4.40;;;7.80;94.20;;;;;;5115944;28;20076;-38
2022/09/20 03:58:45;;;;;;;9.38;5.15;;;7.80;94.20;;;;;;5116083;28;20416;-39
2022/09/20 04:01:29;;;;;;;13.57;5.30;;;7.80;94.20;;;;;;5115578;28;20101;-40
2022/09/20 04:04:14;;;;;;;11.77;4.50;;;7.90;94.20;;;;;;5114187;28;20028;-38
2022/09/20 04:07:13;;;;;;;12.38;4.90;;;7.90;94.20;;;;;;5115584;28;20035;-37
2022/09/20 04:10:15;;;;;;;8.23;5.07;;;8.00;94.20;;;;;;5115648;28;20020;-39
2022/09/20 04:13:25;;;;;;;10.95;4.75;;;8.10;94.20;;;;;;5115658;28;20023;-38
2022/09/20 04:16:12;;;;;;;11.55;5.25;;;8.20;94.20;;;;;;5115860;28;20032;-38
2022/09/20 04:18:51;;;;;;;8.52;4.88;;;8.20;94.10;;;;;;5115179;28;20026;-38
2022/09/20 04:21:36;;;;;;;11.60;5.20;;;8.30;94.10;;;;;;5115369;28;20020;-38
2022/09/20 04:24:28;;;;;;;18.05;5.35;;;8.30;94.10;;;;;;5115380;28;20375;-38
2022/09/20 04:27:20;;;;;;;6.25;4.30;;;8.30;94.00;;;;;;5115327;28;20031;-39
2022/09/20 04:29:58;;;;;;;8.38;4.68;;;8.20;93.90;;;;;;5115561;28;20414;-39
2022/09/20 04:32:34;;;;;;;12.55;4.70;;;8.30;93.80;;;;;;5115131;28;20035;-38
2022/09/20 04:38:11;;;;;;;16.98;4.35;;;8.40;93.80;;;;;;5114091;28;20027;-38
2022/09/20 04:40:58;;;;;;;11.30;4.70;;;8.50;93.70;;;;;;5113668;28;20023;-39
2022/09/20 04:43:54;;;;;;;10.55;5.60;;;8.50;93.60;;;;;;5114865;28;20034;-38
2022/09/20 04:46:34;;;;;;;12.07;5.07;;;8.60;93.50;;;;;;5114054;28;20107;-38
2022/09/20 04:49:37;;;;;;;7.63;4.13;;;8.60;93.40;;;;;;5114988;28;20471;-38
2022/09/20 04:52:40;;;;;;;14.00;5.15;;;8.70;93.40;;;;;;5114770;28;20043;-38
2022/09/20 04:55:14;;;;;;;15.90;6.05;;;8.80;93.50;;;;;;5114599;28;20024;-38
2022/09/20 04:58:11;;;;;;;7.78;4.88;;;8.70;93.40;;;;;;5114578;28;20016;-39
2022/09/20 05:01:16;;;;;;;17.38;4.93;;;8.70;93.40;;;;;;5114080;28;20409;-40
2022/09/20 17:51:55;;;;;;;6.15;2.00;;;13.10;74.10;;;;;;5070421;28;20851;-38
2022/09/20 17:54:23;;;;;;;8.50;1.65;;;13.10;74.30;;;;;;5070102;28;20025;-38
2022/09/20 17:56:50;;;;;;;9.85;1.50;;;13.10;74.00;;;;;;5069818;28;20032;-38
2022/09/20 17:59:17;;;;;;;2.83;1.30;;;13.20;74.00;;;;;;5069395;28;20029;-38
2022/09/20 18:01:45;;;;;;;7.70;1.80;;;13.20;73.70;;;;;;5070032;28;20021;-38
2022/09/20 18:04:11;;;;;;;5.00;1.70;;;13.30;73.80;;;;;;5069681;28;20082;-39
2022/09/20 18:06:45;;;;;;;4.55;1.60;;;13.20;73.40;;;;;;5069783;28;20029;-38
2022/09/20 18:09:14;;;;;;;7.72;1.88;;;13.20;73.70;;;;;;5069429;28;20082;-38
2022/09/20 18:11:44;;;;;;;8.52;3.08;;;13.20;73.60;;;;;;5068260;28;20050;-38
2022/09/20 18:14:10;;;;;;;12.43;4.53;;;13.20;73.60;;;;;;5069527;28;20028;-38
2022/09/20 18:16:49;;;;;;;4.45;2.47;;;13.10;74.00;;;;;;5068435;28;20064;-38
2022/09/20 18:19:15;;;;;;;5.43;2.00;;;13.10;74.10;;;;;;5068482;28;20059;-38
2022/09/20 18:21:41;;;;;;;5.40;2.47;;;13.00;74.20;;;;;;5069222;28;20385;-38
2022/09/20 18:24:09;;;;;;;4.28;2.53;;;13.00;74.70;;;;;;5069294;28;20353;-40
2022/09/20 18:26:35;;;;;;;3.40;1.80;;;13.10;74.90;;;;;;5069225;28;20025;-39
2022/09/20 18:29:05;;;;;;;3.63;1.85;;;13.00;75.10;;;;;;5069142;28;20036;-39
2022/09/20 18:31:41;;;;;;;7.75;1.98;;;13.00;75.80;;;;;;5069103;28;20060;-39
2022/09/20 18:34:10;;;;;;;4.07;2.47;;;12.90;76.90;;;;;;5067826;28;20070;-39
2022/09/20 18:36:38;;;;;;;4.13;1.38;;;12.80;77.80;;;;;;5069189;28;20017;-39
2022/09/20 18:39:05;;;;;;;4.72;1.75;;;12.60;78.60;;;;;;5069418;28;20104;-39
2022/09/20 18:41:36;;;;;;;3.15;2.05;;;12.60;79.20;;;;;;5068788;28;20039;-39
2022/09/20 18:44:06;;;;;;;1.63;1.17;;;12.50;79.60;;;;;;5069331;28;20027;-39
2022/09/20 18:46:36;;;;;;;3.63;1.92;;;12.30;80.10;;;;;;5069310;28;20025;-38
2022/09/20 18:49:05;;;;;;;3.67;1.77;;;12.30;80.70;;;;;;5068082;28;20029;-40
2022/09/20 18:51:31;;;;;;;4.90;1.52;;;12.20;81.00;;;;;;5068557;28;20052;-41
2022/09/20 18:53:57;;;;;;;4.38;1.60;;;12.10;81.40;;;;;;5068820;28;20029;-39
2022/09/20 18:56:27;;;;;;;3.17;2.00;;;12.10;81.60;;;;;;5069079;28;20043;-39
2022/09/20 18:58:55;;;;;;;6.78;2.65;;;12.10;81.70;;;;;;5068310;28;20025;-39
2022/09/20 19:01:48;;;;;;;8.10;3.33;;;12.10;81.80;;;;;;5066222;28;20104;-40
2022/09/20 19:04:39;;;;;;;7.70;4.10;;;12.10;82.10;;;;;;5054287;28;20091;-38
2022/09/20 19:07:25;;;;;;;9.98;5.45;;;12.00;82.50;;;;;;5055952;28;20052;-39
2022/09/20 19:10:30;;;;;;;12.27;6.13;;;12.00;82.90;;;;;;5055862;28;20032;-40
2022/09/20 19:13:04;;;;;;;11.70;5.45;;;11.90;83.40;;;;;;5054494;28;20044;-39
2022/09/20 19:15:44;;;;;;;10.10;5.60;;;11.80;83.60;;;;;;5055596;28;20142;-38
2022/09/20 19:18:43;;;;;;;7.45;4.53;;;11.80;83.80;;;;;;5055199;28;20017;-39
2022/09/20 19:21:44;;;;;;;10.65;6.43;;;11.80;84.10;;;;;;5055192;28;20033;-39
2022/09/20 19:24:36;;;;;;;9.93;5.40;;;11.70;84.40;;;;;;5055365;28;20029;-38
2022/09/20 19:27:01;;;;;;;11.50;6.18;;;11.60;84.70;;;;;;5055289;28;20029;-38
2022/09/20 19:29:27;;;;;;;18.05;6.10;;;11.60;85.00;;;;;;5055462;28;20029;-39
2022/09/20 19:31:59;;;;;;;16.35;4.28;;;11.50;85.20;;;;;;5055251;28;20460;-40
2022/09/20 19:34:30;;;;;;;5.07;3.60;;;11.50;85.40;;;;;;5055319;28;20047;-40
2022/09/20 19:37:17;;;;;;;17.00;7.18;;;11.40;85.80;;;;;;5055220;28;20021;-38
2022/09/20 19:40:01;;;;;;;12.95;7.35;;;11.40;86.10;;;;;;5055070;28;20053;-40
2022/09/20 19:42:46;;;;;;;13.57;8.10;;;11.30;86.40;;;;;;5055219;28;20047;-38
2022/09/20 19:45:30;;;;;;;21.27;10.40;;;11.30;86.60;;;;;;5055275;28;20420;-37
2022/09/20 19:48:09;;;;;;;25.30;9.60;;;11.20;86.80;;;;;;5055102;28;20370;-39
2022/09/20 19:50:45;;;;;;;13.43;8.07;;;11.10;87.00;;;;;;5054738;28;20580;-39
2022/09/20 19:53:13;;;;;;;16.80;7.15;;;11.10;87.20;;;;;;5055191;28;20041;-38
2022/09/20 19:55:42;;;;;;;10.65;6.53;;;11.00;87.30;;;;;;5054647;28;20428;-39
2022/09/20 19:58:08;;;;;;;14.45;9.20;;;11.00;87.60;;;;;;5054519;28;20028;-39
2022/09/20 20:00:34;;;;;;;21.35;11.48;;;11.10;88.00;;;;;;5054930;28;20100;-39
2022/09/20 20:03:00;;;;;;;18.42;11.52;;;11.00;87.80;;;;;;5054668;28;20029;-38
2022/09/20 20:05:26;;;;;;;20.45;12.20;;;10.90;88.00;;;;;;5054328;28;20029;-39
2022/09/20 20:08:16;;;;;;;19.63;12.02;;;10.80;88.00;;;;;;5055031;28;20047;-40
2022/09/20 20:11:00;;;;;;;29.10;14.07;;;10.70;88.20;;;;;;5055076;28;20096;-38
2022/09/20 20:14:01;;;;;;;22.85;13.52;;;10.60;88.50;;;;;;5052107;28;20384;-39
2022/09/20 20:16:59;;;;;;;21.90;13.43;;;10.60;88.60;;;;;;5053889;28;20037;-39
2022/09/20 20:19:37;;;;;;;20.50;11.55;;;10.50;88.80;;;;;;5052503;28;20045;-40
2022/09/20 20:22:31;;;;;;;15.52;9.30;;;10.60;89.00;;;;;;5054401;28;20031;-39
2022/09/20 20:24:57;;;;;;;17.08;8.40;;;10.50;89.10;;;;;;5052936;28;20442;-38
2022/09/20 20:27:24;;;;;;;13.07;6.85;;;10.50;89.10;;;;;;5054372;28;20049;-39
2022/09/20 20:29:51;;;;;;;10.80;5.85;;;10.40;89.20;;;;;;5053415;28;20021;-38
2022/09/20 20:32:16;;;;;;;17.55;6.85;;;10.40;89.30;;;;;;5053969;28;20041;-38
2022/09/20 20:34:42;;;;;;;9.00;5.68;;;10.40;89.40;;;;;;5053919;28;20022;-39
2022/09/20 20:37:08;;;;;;;12.88;6.28;;;10.40;89.50;;;;;;5053908;28;20036;-39
2022/09/20 20:39:34;;;;;;;14.88;5.97;;;10.30;89.50;;;;;;5053970;28;20545;-38
2022/09/20 20:42:01;;;;;;;9.35;5.80;;;10.30;89.60;;;;;;5053801;28;20028;-39
2022/09/20 20:44:36;;;;;;;8.50;5.00;;;10.30;89.60;;;;;;5053895;28;20035;-39
2022/09/20 20:47:04;;;;;;;20.75;6.60;;;10.20;89.70;;;;;;5054111;28;20368;-39
2022/09/20 20:49:30;;;;;;;11.50;6.15;;;10.10;89.70;;;;;;5053551;28;20029;-40
2022/09/20 20:51:57;;;;;;;11.68;5.95;;;10.10;89.90;;;;;;5053444;28;20123;-38
2022/09/20 20:54:23;;;;;;;11.70;7.13;;;10.10;90.00;;;;;;5054180;28;20103;-39
2022/09/20 20:56:49;;;;;;;13.75;7.50;;;10.00;90.10;;;;;;5053685;28;20021;-40
2022/09/20 20:59:16;;;;;;;15.15;8.25;;;10.10;90.20;;;;;;5053614;28;20442;-38
2022/09/20 21:01:44;;;;;;;9.90;6.70;;;10.10;90.30;;;;;;5053701;28;20109;-39
2022/09/20 21:04:10;;;;;;;17.02;7.68;;;10.10;90.30;;;;;;5053695;28;20029;-38
2022/09/20 21:06:39;;;;;;;16.25;7.88;;;10.10;90.40;;;;;;5054029;28;20048;-39
2022/09/20 21:09:05;;;;;;;10.48;7.00;;;10.10;90.50;;;;;;5053847;28;20036;-40
2022/09/20 21:11:37;;;;;;;9.90;6.97;;;10.10;90.50;;;;;;5051655;28;20025;-39
2022/09/20 21:14:06;;;;;;;11.13;6.80;;;10.10;90.40;;;;;;5053533;28;20032;-38
2022/09/20 21:16:34;;;;;;;14.18;7.93;;;10.10;90.40;;;;;;5052826;28;20424;-38
2022/09/20 21:19:00;;;;;;;19.48;7.45;;;10.00;90.20;;;;;;5052974;28;20045;-38
2022/09/20 21:21:28;;;;;;;10.13;6.78;;;10.00;90.20;;;;;;5052882;28;20056;-38
2022/09/20 21:24:01;;;;;;;11.00;6.47;;;9.90;90.20;;;;;;5051616;28;20457;-38
2022/09/20 21:26:30;;;;;;;13.43;7.50;;;9.90;90.30;;;;;;5053079;28;20499;-38
2022/09/20 21:29:02;;;;;;;10.73;6.57;;;9.90;90.30;;;;;;5053042;28;20032;-38
2022/09/20 21:31:31;;;;;;;9.85;5.28;;;9.90;90.20;;;;;;5052751;28;20276;-40
2022/09/20 21:33:57;;;;;;;9.55;6.63;;;9.80;90.20;;;;;;5052754;28;20108;-38
2022/09/20 21:36:25;;;;;;;10.20;6.32;;;9.80;90.20;;;;;;5052785;28;20490;-39
2022/09/20 21:38:51;;;;;;;11.70;5.35;;;9.80;90.20;;;;;;5052950;28;20565;-38
2022/09/20 21:41:22;;;;;;;12.52;5.72;;;9.80;90.20;;;;;;5051223;28;20068;-38
2022/09/20 21:43:52;;;;;;;13.82;6.18;;;9.80;90.30;;;;;;5051268;28;20044;-39
2022/09/20 21:46:20;;;;;;;11.23;6.40;;;9.80;90.20;;;;;;5052880;28;20114;-38
2022/09/20 21:48:47;;;;;;;10.40;6.70;;;9.80;90.20;;;;;;5052941;28;20021;-40
2022/09/20 21:51:17;;;;;;;14.35;6.15;;;9.70;90.20;;;;;;5052424;28;20075;-40
2022/09/20 21:53:43;;;;;;;16.70;7.32;;;9.60;90.30;;;;;;5053554;28;20029;-38
2022/09/20 21:56:12;;;;;;;11.20;5.90;;;9.60;90.40;;;;;;5052769;28;20023;-38
2022/09/20 21:58:41;;;;;;;10.63;6.03;;;9.60;90.50;;;;;;5052566;28;20021;-38
2022/09/20 22:01:12;;;;;;;9.30;5.65;;;9.60;90.70;;;;;;5052748;28;20032;-39
2022/09/20 22:03:57;;;;;;;14.05;6.10;;;9.50;90.70;;;;;;5053269;28;20033;-39
2022/09/20 22:06:25;;;;;;;13.73;6.00;;;9.50;90.70;;;;;;5051355;28;20135;-39
2022/09/20 22:09:00;;;;;;;14.23;7.22;;;9.60;90.80;;;;;;5052770;28;20079;-39
2022/09/20 22:11:30;;;;;;;16.30;8.38;;;9.50;90.80;;;;;;5051265;28;20017;-40
2022/09/20 22:13:56;;;;;;;;;;;9.50;91.00;;;;;;5052867;28;20021;-37
2022/09/20 22:16:27;;;;;;;14.10;7.07;;;9.50;90.90;;;;;;5052583;28;20252;-40
2022/09/20 22:18:54;;;;;;;13.13;6.78;;;9.50;91.00;;;;;;5054131;28;20469;-38
2022/09/20 22:21:26;;;;;;;10.82;6.53;;;9.50;91.00;;;;;;5054452;28;20132;-38
2022/09/20 22:23:57;;;;;;;13.02;6.15;;;9.40;91.00;;;;;;5053197;28;20053;-40
2022/09/20 22:26:26;;;;;;;12.70;6.22;;;9.40;90.90;;;;;;5055250;28;20410;-39
2022/09/20 22:28:52;;;;;;;14.10;6.65;;;9.40;91.00;;;;;;5054567;28;20032;-37
2022/09/20 22:31:20;;;;;;;9.70;5.93;;;9.40;91.00;;;;;;5054430;28;20029;-38
2022/09/20 22:33:49;;;;;;;16.88;7.40;;;9.40;91.00;;;;;;5052148;28;20319;-39
2022/09/20 22:36:16;;;;;;;17.73;6.93;;;9.30;91.00;;;;;;5052567;28;20433;-38
2022/09/20 22:38:43;;;;;;;14.95;9.02;;;9.40;91.10;;;;;;5056297;28;20017;-39
2022/09/20 22:41:10;;;;;;;14.40;8.05;;;9.40;91.20;;;;;;5056147;28;20524;-39
2022/09/20 22:43:36;;;;;;;21.27;10.18;;;9.30;91.00;;;;;;5056596;28;20025;-39
2022/09/20 22:46:03;;;;;;;17.88;9.23;;;9.30;91.00;;;;;;5054998;28;20480;-39
2022/09/20 22:48:30;;;;;;;11.85;7.18;;;9.20;91.00;;;;;;5056587;28;20047;-38
2022/09/20 22:51:01;;;;;;;15.55;9.48;;;9.10;91.10;;;;;;5055999;28;20424;-38
2022/09/20 22:53:27;;;;;;;;;;;9.10;91.10;;;;;;5055206;28;20432;-38
2022/09/20 22:55:53;;;;;;;24.75;10.32;;;9.00;91.20;;;;;;5056362;28;20307;-38
2022/09/20 22:58:18;;;;;;;17.30;10.07;;;8.90;91.10;;;;;;5056462;28;20021;-38
2022/09/20 23:00:44;;;;;;;14.40;8.88;;;8.90;91.30;;;;;;5054574;28;20025;-38
2022/09/20 23:03:10;;;;;;;19.35;9.13;;;8.80;91.10;;;;;;5055854;28;20362;-40
2022/09/20 23:05:38;;;;;;;22.08;10.70;;;8.80;91.00;;;;;;5055839;28;20116;-38
2022/09/20 23:08:05;;;;;;;17.38;9.80;;;8.80;91.00;;;;;;5056787;28;20036;-38
2022/09/20 23:10:32;;;;;;;17.02;8.55;;;8.70;91.00;;;;;;5057006;28;20511;-39
2022/09/20 23:12:57;;;;;;;14.35;8.70;;;8.70;91.10;;;;;;5056490;28;20368;-40
2022/09/20 23:15:23;;;;;;;18.38;9.27;;;8.60;91.20;;;;;;5055741;28;20104;-38
2022/09/20 23:17:49;;;;;;;15.98;8.45;;;8.60;91.30;;;;;;5056181;28;20055;-39
2022/09/20 23:20:14;;;;;;;18.65;8.68;;;8.60;91.40;;;;;;5054484;28;20102;-38
2022/09/20 23:22:40;;;;;;;18.63;8.50;;;8.60;91.50;;;;;;5055854;28;20025;-38
2022/09/20 23:25:06;;;;;;;12.43;7.50;;;8.60;91.40;;;;;;5055737;28;20060;-38
2022/09/20 23:27:32;;;;;;;10.27;7.68;;;8.60;91.50;;;;;;5055684;28;20036;-38
2022/09/20 23:29:57;;;;;;;13.13;8.32;;;8.60;91.60;;;;;;5055683;28;20029;-38
2022/09/20 23:32:23;;;;;;;20.48;9.63;;;8.60;91.60;;;;;;5055350;28;20021;-37
2022/09/20 23:34:48;;;;;;;18.45;8.20;;;8.60;91.60;;;;;;5054615;28;20068;-37
2022/09/20 23:37:14;;;;;;;11.75;7.68;;;8.60;91.60;;;;;;5055016;28;20020;-39
2022/09/20 23:39:40;;;;;;;11.75;6.53;;;8.60;91.70;;;;;;5053675;28;20021;-38
2022/09/20 23:42:06;;;;;;;10.55;6.55;;;8.60;91.60;;;;;;5055313;28;20378;-38
2022/09/20 23:44:31;;;;;;;17.33;7.32;;;8.60;91.50;;;;;;5054950;28;20047;-38
2022/09/20 23:46:57;;;;;;;14.63;8.70;;;8.50;91.50;;;;;;5055032;28;20040;-37
2022/09/20 23:49:23;;;;;;;14.65;7.47;;;8.50;91.60;;;;;;5055194;28;20100;-39
2022/09/20 23:51:48;;;;;;;14.43;7.60;;;8.50;91.60;;;;;;5053525;28;20045;-37
2022/09/20 23:54:14;;;;;;;17.33;8.02;;;8.50;91.60;;;;;;5054666;28;20032;-38
2022/09/20 23:56:40;;;;;;;11.00;6.32;;;8.50;91.60;;;;;;5054852;28;20068;-41
2022/09/20 23:59:06;;;;;;;12.45;6.78;;;8.50;91.60;;;;;;5053383;28;20060;-38
